sensor_id;sensor_type;location;lat;lon;timestamp;pressure;altitude;pressure_sealevel;temperature;humidity
76726;BME280;65651;53.154;17.916;2023-01-10T00:01:55;100110.77;;;3.33;89.38
76726;BME280;65651;53.154;17.916;2023-01-10T00:04:23;100116.67;;;3.37;89.48
76726;BME280;65651;53.154;17.916;2023-01-10T00:06:52;100122.02;;;3.42;89.52
76726;BME280;65651;53.154;17.916;2023-01-10T00:09:20;100125.33;;;3.45;89.72
76726;BME280;65651;53.154;17.916;2023-01-10T00:11:50;100125.04;;;3.49;89.52
76726;BME280;65651;53.154;17.916;2023-01-10T00:14:36;100128.77;;;3.54;89.63
76726;BME280;65651;53.154;17.916;2023-01-10T00:17:03;100135.94;;;3.58;89.69
76726;BME280;65651;53.154;17.916;2023-01-10T00:19:31;100131.79;;;3.61;89.71
76726;BME280;65651;53.154;17.916;2023-01-10T00:21:58;100129.21;;;3.65;89.66
76726;BME280;65651;53.154;17.916;2023-01-10T00:24:32;100134.11;;;3.68;89.51
76726;BME280;65651;53.154;17.916;2023-01-10T00:26:59;100135.47;;;3.69;89.66
76726;BME280;65651;53.154;17.916;2023-01-10T00:29:29;100138.70;;;3.73;89.99
76726;BME280;65651;53.154;17.916;2023-01-10T00:31:57;100142.08;;;3.78;89.92
76726;BME280;65651;53.154;17.916;2023-01-10T00:34:24;100141.02;;;3.80;89.92
76726;BME280;65651;53.154;17.916;2023-01-10T00:36:52;100144.91;;;3.83;89.91
76726;BME280;65651;53.154;17.916;2023-01-10T00:39:20;100147.94;;;3.85;89.78
76726;BME280;65651;53.154;17.916;2023-01-10T00:41:47;100153.44;;;3.88;89.63
76726;BME280;65651;53.154;17.916;2023-01-10T00:44:33;100161.89;;;3.88;89.98
76726;BME280;65651;53.154;17.916;2023-01-10T00:47:00;100172.54;;;3.89;89.82
76726;BME280;65651;53.154;17.916;2023-01-10T00:49:28;100173.00;;;3.89;89.82
76726;BME280;65651;53.154;17.916;2023-01-10T00:51:55;100173.43;;;3.91;89.98
76726;BME280;65651;53.154;17.916;2023-01-10T00:54:24;100174.91;;;3.95;90.03
76726;BME280;65651;53.154;17.916;2023-01-10T00:56:52;100178.10;;;3.97;89.84
76726;BME280;65651;53.154;17.916;2023-01-10T00:59:19;100179.45;;;4.00;89.94
76726;BME280;65651;53.154;17.916;2023-01-10T01:01:47;100182.92;;;4.03;89.71
76726;BME280;65651;53.154;17.916;2023-01-10T01:04:14;100186.41;;;4.04;89.92
76726;BME280;65651;53.154;17.916;2023-01-10T01:06:43;100194.89;;;4.03;89.73
76726;BME280;65651;53.154;17.916;2023-01-10T01:09:10;100195.99;;;4.00;90.00
76726;BME280;65651;53.154;17.916;2023-01-10T01:11:37;100193.21;;;3.99;89.93
76726;BME280;65651;53.154;17.916;2023-01-10T01:14:05;100195.56;;;3.98;89.79
76726;BME280;65651;53.154;17.916;2023-01-10T01:16:33;100197.05;;;3.95;89.83
76726;BME280;65651;53.154;17.916;2023-01-10T01:19:00;100200.67;;;3.92;89.77
76726;BME280;65651;53.154;17.916;2023-01-10T01:21:27;100200.98;;;3.90;89.85
76726;BME280;65651;53.154;17.916;2023-01-10T01:23:55;100204.25;;;3.92;89.93
76726;BME280;65651;53.154;17.916;2023-01-10T01:26:23;100204.84;;;3.93;89.92
76726;BME280;65651;53.154;17.916;2023-01-10T01:28:50;100207.83;;;3.93;89.87
76726;BME280;65651;53.154;17.916;2023-01-10T01:31:18;100211.30;;;3.95;89.78
76726;BME280;65651;53.154;17.916;2023-01-10T01:33:46;100215.03;;;3.94;89.97
76726;BME280;65651;53.154;17.916;2023-01-10T01:36:13;100218.86;;;3.93;89.71
76726;BME280;65651;53.154;17.916;2023-01-10T01:38:41;100216.91;;;3.93;89.79
76726;BME280;65651;53.154;17.916;2023-01-10T01:41:08;100216.05;;;3.91;89.97
76726;BME280;65651;53.154;17.916;2023-01-10T01:44:09;100219.73;;;3.86;89.65
76726;BME280;65651;53.154;17.916;2023-01-10T01:46:41;100226.21;;;3.81;89.89
76726;BME280;65651;53.154;17.916;2023-01-10T01:49:14;100234.67;;;3.79;89.93
76726;BME280;65651;53.154;17.916;2023-01-10T01:51:45;100235.73;;;3.74;89.86
76726;BME280;65651;53.154;17.916;2023-01-10T01:54:15;100235.43;;;3.68;89.59
76726;BME280;65651;53.154;17.916;2023-01-10T01:56:54;100236.31;;;3.66;89.66
76726;BME280;65651;53.154;17.916;2023-01-10T01:59:29;100235.96;;;3.68;89.85
76726;BME280;65651;53.154;17.916;2023-01-10T02:02:04;100235.94;;;3.71;89.81
76726;BME280;65651;53.154;17.916;2023-01-10T02:07:25;100228.54;;;3.73;89.80
76726;BME280;65651;53.154;17.916;2023-01-10T02:10:00;100234.34;;;3.73;89.91
76726;BME280;65651;53.154;17.916;2023-01-10T02:12:31;100234.66;;;3.74;89.66
76726;BME280;65651;53.154;17.916;2023-01-10T02:14:58;100238.96;;;3.73;89.90
76726;BME280;65651;53.154;17.916;2023-01-10T02:17:27;100245.95;;;3.70;89.82
76726;BME280;65651;53.154;17.916;2023-01-10T02:20:09;100255.39;;;3.67;90.00
76726;BME280;65651;53.154;17.916;2023-01-10T02:26:13;100261.66;;;3.71;89.89
76726;BME280;65651;53.154;17.916;2023-01-10T02:43:16;100286.84;;;3.59;89.80
76726;BME280;65651;53.154;17.916;2023-01-10T02:45:55;100284.57;;;3.57;89.80
76726;BME280;65651;53.154;17.916;2023-01-10T02:48:24;100283.04;;;3.55;89.59
76726;BME280;65651;53.154;17.916;2023-01-10T02:51:00;100286.39;;;3.56;90.07
76726;BME280;65651;53.154;17.916;2023-01-10T02:54:00;100292.28;;;3.58;89.90
76726;BME280;65651;53.154;17.916;2023-01-10T02:56:40;100296.40;;;3.60;89.96
76726;BME280;65651;53.154;17.916;2023-01-10T03:00:18;100308.90;;;3.61;89.85
76726;BME280;65651;53.154;17.916;2023-01-10T03:02:35;100320.68;;;3.58;89.89
76726;BME280;65651;53.154;17.916;2023-01-10T03:05:25;100326.16;;;3.53;89.97
76726;BME280;65651;53.154;17.916;2023-01-10T03:11:01;100335.22;;;3.50;89.93
76726;BME280;65651;53.154;17.916;2023-01-10T03:13:45;100336.01;;;3.49;89.68
76726;BME280;65651;53.154;17.916;2023-01-10T03:16:17;100342.38;;;3.47;89.98
76726;BME280;65651;53.154;17.916;2023-01-10T03:19:03;100344.11;;;3.45;89.89
76726;BME280;65651;53.154;17.916;2023-01-10T03:21:35;100342.96;;;3.46;89.94
76726;BME280;65651;53.154;17.916;2023-01-10T03:24:17;100345.66;;;3.48;89.89
76726;BME280;65651;53.154;17.916;2023-01-10T03:26:58;100348.19;;;3.45;89.90
76726;BME280;65651;53.154;17.916;2023-01-10T03:29:38;100350.30;;;3.42;89.80
76726;BME280;65651;53.154;17.916;2023-01-10T03:32:09;100352.58;;;3.45;90.01
76726;BME280;65651;53.154;17.916;2023-01-10T03:34:38;100354.84;;;3.51;89.98
76726;BME280;65651;53.154;17.916;2023-01-10T03:43:07;100354.53;;;3.56;89.92
76726;BME280;65651;53.154;17.916;2023-01-10T03:45:59;100359.48;;;3.56;89.75
76726;BME280;65651;53.154;17.916;2023-01-10T03:48:35;100356.38;;;3.55;89.83
76726;BME280;65651;53.154;17.916;2023-01-10T03:51:05;100358.63;;;3.56;89.74
76726;BME280;65651;53.154;17.916;2023-01-10T03:53:37;100355.52;;;3.57;89.82
76726;BME280;65651;53.154;17.916;2023-01-10T03:56:06;100359.27;;;3.62;89.76
76726;BME280;65651;53.154;17.916;2023-01-10T03:58:34;100363.23;;;3.63;89.80
76726;BME280;65651;53.154;17.916;2023-01-10T04:01:01;100363.05;;;3.63;89.76
76726;BME280;65651;53.154;17.916;2023-01-10T04:03:28;100363.84;;;3.62;89.65
76726;BME280;65651;53.154;17.916;2023-01-10T04:05:55;100374.27;;;3.58;89.97
76726;BME280;65651;53.154;17.916;2023-01-10T04:08:23;100382.08;;;3.53;89.54
76726;BME280;65651;53.154;17.916;2023-01-10T04:10:50;100388.32;;;3.49;89.81
76726;BME280;65651;53.154;17.916;2023-01-10T04:13:17;100397.51;;;3.50;89.79
76726;BME280;65651;53.154;17.916;2023-01-10T04:15:44;100401.29;;;3.49;89.73
76726;BME280;65651;53.154;17.916;2023-01-10T04:18:11;100401.33;;;3.49;89.70
76726;BME280;65651;53.154;17.916;2023-01-10T04:20:39;100408.09;;;3.48;89.71
76726;BME280;65651;53.154;17.916;2023-01-10T04:23:06;100406.95;;;3.49;89.68
76726;BME280;65651;53.154;17.916;2023-01-10T04:25:33;100415.77;;;3.48;89.82
76726;BME280;65651;53.154;17.916;2023-01-10T04:28:00;100416.67;;;3.40;89.82
76726;BME280;65651;53.154;17.916;2023-01-10T04:30:28;100416.71;;;3.34;89.73
76726;BME280;65651;53.154;17.916;2023-01-10T04:32:55;100419.87;;;3.32;89.54
76726;BME280;65651;53.154;17.916;2023-01-10T04:35:22;100430.38;;;3.32;89.71
76726;BME280;65651;53.154;17.916;2023-01-10T04:37:56;100435.54;;;3.29;89.43
76726;BME280;65651;53.154;17.916;2023-01-10T04:40:23;100438.30;;;3.30;89.66
76726;BME280;65651;53.154;17.916;2023-01-10T04:42:50;100441.25;;;3.33;89.60
76726;BME280;65651;53.154;17.916;2023-01-10T04:45:17;100447.92;;;3.32;89.82
76726;BME280;65651;53.154;17.916;2023-01-10T04:47:51;100451.98;;;3.26;89.42
76726;BME280;65651;53.154;17.916;2023-01-10T04:50:18;100460.85;;;3.24;89.87
76726;BME280;65651;53.154;17.916;2023-01-10T04:52:46;100464.99;;;3.26;89.80
76726;BME280;65651;53.154;17.916;2023-01-10T04:55:13;100465.55;;;3.26;89.81
76726;BME280;65651;53.154;17.916;2023-01-10T04:57:40;100476.89;;;3.26;89.74
76726;BME280;65651;53.154;17.916;2023-01-10T05:00:08;100477.54;;;3.27;89.68
76726;BME280;65651;53.154;17.916;2023-01-10T05:02:36;100486.86;;;3.28;89.58
76726;BME280;65651;53.154;17.916;2023-01-10T05:05:14;100487.71;;;3.26;89.71
76726;BME280;65651;53.154;17.916;2023-01-10T05:07:44;100492.49;;;3.26;89.61
76726;BME280;65651;53.154;17.916;2023-01-10T05:10:13;100494.40;;;3.18;89.50
76726;BME280;65651;53.154;17.916;2023-01-10T05:12:40;100497.20;;;3.03;89.77
76726;BME280;65651;53.154;17.916;2023-01-10T05:15:09;100506.29;;;2.91;89.75
76726;BME280;65651;53.154;17.916;2023-01-10T05:17:36;100502.62;;;2.80;89.94
76726;BME280;65651;53.154;17.916;2023-01-10T05:20:04;100514.14;;;2.74;89.46
76726;BME280;65651;53.154;17.916;2023-01-10T05:22:35;100519.68;;;2.68;89.83
76726;BME280;65651;53.154;17.916;2023-01-10T05:25:02;100524.67;;;2.62;89.56
76726;BME280;65651;53.154;17.916;2023-01-10T05:27:30;100528.77;;;2.56;89.74
76726;BME280;65651;53.154;17.916;2023-01-10T05:29:57;100530.35;;;2.50;89.44
76726;BME280;65651;53.154;17.916;2023-01-10T05:32:28;100531.83;;;2.44;89.63
76726;BME280;65651;53.154;17.916;2023-01-10T05:34:56;100543.14;;;2.36;89.76
76726;BME280;65651;53.154;17.916;2023-01-10T05:37:23;100551.96;;;2.28;89.73
76726;BME280;65651;53.154;17.916;2023-01-10T05:39:50;100554.39;;;2.26;89.87
76726;BME280;65651;53.154;17.916;2023-01-10T05:42:18;100558.09;;;2.26;89.79
76726;BME280;65651;53.154;17.916;2023-01-10T05:44:45;100560.44;;;2.28;89.92
76726;BME280;65651;53.154;17.916;2023-01-10T05:47:12;100568.08;;;2.28;89.70
76726;BME280;65651;53.154;17.916;2023-01-10T05:49:40;100568.21;;;2.26;89.70
76726;BME280;65651;53.154;17.916;2023-01-10T05:52:07;100576.91;;;2.25;89.83
76726;BME280;65651;53.154;17.916;2023-01-10T05:54:34;100575.88;;;2.25;89.70
76726;BME280;65651;53.154;17.916;2023-01-10T05:57:02;100572.17;;;2.28;89.70
76726;BME280;65651;53.154;17.916;2023-01-10T05:59:32;100568.70;;;2.32;89.75
76726;BME280;65651;53.154;17.916;2023-01-10T06:01:59;100571.83;;;2.39;89.51
76726;BME280;65651;53.154;17.916;2023-01-10T06:04:26;100584.30;;;2.40;89.91
76726;BME280;65651;53.154;17.916;2023-01-10T06:06:54;100590.23;;;2.42;89.78
76726;BME280;65651;53.154;17.916;2023-01-10T06:09:23;100596.41;;;2.42;89.75
76726;BME280;65651;53.154;17.916;2023-01-10T06:11:51;100599.52;;;2.41;89.76
76726;BME280;65651;53.154;17.916;2023-01-10T06:14:18;100607.89;;;2.40;89.50
76726;BME280;65651;53.154;17.916;2023-01-10T06:16:45;100611.48;;;2.39;89.64
76726;BME280;65651;53.154;17.916;2023-01-10T06:19:14;100622.77;;;2.40;89.89
76726;BME280;65651;53.154;17.916;2023-01-10T06:21:42;100629.82;;;2.40;89.69
76726;BME280;65651;53.154;17.916;2023-01-10T06:24:09;100631.55;;;2.44;89.97
76726;BME280;65651;53.154;17.916;2023-01-10T06:26:36;100634.42;;;2.49;89.59
76726;BME280;65651;53.154;17.916;2023-01-10T06:29:04;100638.21;;;2.54;89.89
76726;BME280;65651;53.154;17.916;2023-01-10T06:31:31;100640.98;;;2.58;89.94
76726;BME280;65651;53.154;17.916;2023-01-10T06:33:58;100646.94;;;2.59;89.90
76726;BME280;65651;53.154;17.916;2023-01-10T06:36:26;100647.48;;;2.59;89.94
76726;BME280;65651;53.154;17.916;2023-01-10T06:38:54;100648.67;;;2.60;89.87
76726;BME280;65651;53.154;17.916;2023-01-10T06:41:25;100649.61;;;2.61;89.91
76726;BME280;65651;53.154;17.916;2023-01-10T06:43:52;100653.33;;;2.65;90.11
76726;BME280;65651;53.154;17.916;2023-01-10T06:46:19;100658.70;;;2.66;90.02
76726;BME280;65651;53.154;17.916;2023-01-10T06:48:48;100666.64;;;2.70;89.96
76726;BME280;65651;53.154;17.916;2023-01-10T06:51:16;100674.73;;;2.71;89.78
76726;BME280;65651;53.154;17.916;2023-01-10T06:53:43;100678.55;;;2.73;89.97
76726;BME280;65651;53.154;17.916;2023-01-10T06:56:11;100678.27;;;2.74;89.82
76726;BME280;65651;53.154;17.916;2023-01-10T06:58:38;100682.73;;;2.73;89.93
76726;BME280;65651;53.154;17.916;2023-01-10T07:01:11;100685.64;;;2.72;89.91
76726;BME280;65651;53.154;17.916;2023-01-10T07:03:39;100692.67;;;2.73;89.80
76726;BME280;65651;53.154;17.916;2023-01-10T07:06:07;100693.52;;;2.74;89.97
76726;BME280;65651;53.154;17.916;2023-01-10T07:08:40;100693.69;;;2.77;90.07
76726;BME280;65651;53.154;17.916;2023-01-10T07:11:08;100697.91;;;2.80;89.84
76726;BME280;65651;53.154;17.916;2023-01-10T07:13:38;100702.69;;;2.83;90.01
76726;BME280;65651;53.154;17.916;2023-01-10T07:16:14;100704.65;;;2.83;89.87
76726;BME280;65651;53.154;17.916;2023-01-10T07:18:42;100710.02;;;2.79;89.59
76726;BME280;65651;53.154;17.916;2023-01-10T07:21:12;100711.18;;;2.78;89.83
76726;BME280;65651;53.154;17.916;2023-01-10T07:23:39;100710.77;;;2.79;89.81
76726;BME280;65651;53.154;17.916;2023-01-10T07:26:09;100712.21;;;2.81;89.96
76726;BME280;65651;53.154;17.916;2023-01-10T07:28:37;100717.94;;;2.83;89.70
76726;BME280;65651;53.154;17.916;2023-01-10T07:31:04;100717.02;;;2.86;89.83
76726;BME280;65651;53.154;17.916;2023-01-10T07:33:32;100719.84;;;2.89;89.60
76726;BME280;65651;53.154;17.916;2023-01-10T07:36:01;100720.73;;;2.92;89.62
76726;BME280;65651;53.154;17.916;2023-01-10T07:38:29;100723.54;;;2.96;89.95
76726;BME280;65651;53.154;17.916;2023-01-10T07:40:56;100728.38;;;2.98;89.92
76726;BME280;65651;53.154;17.916;2023-01-10T07:43:25;100732.16;;;3.00;89.77
76726;BME280;65651;53.154;17.916;2023-01-10T07:45:53;100736.36;;;3.01;89.51
76726;BME280;65651;53.154;17.916;2023-01-10T07:48:21;100738.77;;;3.02;89.55
76726;BME280;65651;53.154;17.916;2023-01-10T07:50:48;100739.41;;;3.00;89.78
76726;BME280;65651;53.154;17.916;2023-01-10T07:53:15;100741.55;;;2.97;89.77
76726;BME280;65651;53.154;17.916;2023-01-10T07:55:43;100747.99;;;2.93;89.48
76726;BME280;65651;53.154;17.916;2023-01-10T07:58:12;100757.77;;;2.92;89.65
76726;BME280;65651;53.154;17.916;2023-01-10T08:00:40;100761.27;;;2.96;89.65
76726;BME280;65651;53.154;17.916;2023-01-10T08:03:12;100761.77;;;3.00;89.62
76726;BME280;65651;53.154;17.916;2023-01-10T08:05:39;100765.97;;;3.04;89.71
76726;BME280;65651;53.154;17.916;2023-01-10T08:08:08;100771.60;;;3.07;89.49
76726;BME280;65651;53.154;17.916;2023-01-10T08:10:38;100772.68;;;3.15;89.70
76726;BME280;65651;53.154;17.916;2023-01-10T08:13:06;100776.02;;;3.24;89.47
76726;BME280;65651;53.154;17.916;2023-01-10T08:15:33;100778.95;;;3.31;89.41
76726;BME280;65651;53.154;17.916;2023-01-10T08:18:01;100780.73;;;3.34;89.39
76726;BME280;65651;53.154;17.916;2023-01-10T08:20:28;100778.61;;;3.37;89.61
76726;BME280;65651;53.154;17.916;2023-01-10T08:22:58;100780.91;;;3.40;89.37
76726;BME280;65651;53.154;17.916;2023-01-10T08:25:25;100789.77;;;3.46;89.41
76726;BME280;65651;53.154;17.916;2023-01-10T08:27:53;100798.66;;;3.48;89.07
76726;BME280;65651;53.154;17.916;2023-01-10T08:30:20;100801.17;;;3.47;89.14
76726;BME280;65651;53.154;17.916;2023-01-10T08:32:48;100806.17;;;3.53;89.45
76726;BME280;65651;53.154;17.916;2023-01-10T08:35:18;100807.00;;;3.54;89.25
76726;BME280;65651;53.154;17.916;2023-01-10T08:37:45;100812.78;;;3.55;89.17
76726;BME280;65651;53.154;17.916;2023-01-10T08:40:13;100813.57;;;3.63;88.92
76726;BME280;65651;53.154;17.916;2023-01-10T08:42:40;100816.98;;;3.67;89.08
76726;BME280;65651;53.154;17.916;2023-01-10T08:45:08;100822.63;;;3.71;89.27
76726;BME280;65651;53.154;17.916;2023-01-10T08:47:37;100826.97;;;3.78;89.37
76726;BME280;65651;53.154;17.916;2023-01-10T08:50:05;100828.23;;;3.86;89.45
76726;BME280;65651;53.154;17.916;2023-01-10T08:52:32;100830.05;;;3.91;89.19
76726;BME280;65651;53.154;17.916;2023-01-10T08:55:00;100832.97;;;3.92;89.11
76726;BME280;65651;53.154;17.916;2023-01-10T08:57:27;100835.79;;;4.01;89.06
76726;BME280;65651;53.154;17.916;2023-01-10T08:59:55;100840.25;;;4.14;89.30
76726;BME280;65651;53.154;17.916;2023-01-10T09:02:22;100842.94;;;4.27;89.18
76726;BME280;65651;53.154;17.916;2023-01-10T09:04:49;100845.16;;;4.37;89.00
76726;BME280;65651;53.154;17.916;2023-01-10T09:07:17;100846.70;;;4.41;88.93
76726;BME280;65651;53.154;17.916;2023-01-10T09:09:44;100851.63;;;4.47;89.08
76726;BME280;65651;53.154;17.916;2023-01-10T09:12:11;100856.66;;;4.51;88.94
76726;BME280;65651;53.154;17.916;2023-01-10T09:14:58;100861.63;;;4.54;88.83
76726;BME280;65651;53.154;17.916;2023-01-10T09:17:25;100865.35;;;4.60;88.79
76726;BME280;65651;53.154;17.916;2023-01-10T09:19:52;100874.28;;;4.65;88.75
76726;BME280;65651;53.154;17.916;2023-01-10T09:22:22;100878.23;;;4.64;88.87
76726;BME280;65651;53.154;17.916;2023-01-10T09:24:51;100881.16;;;4.66;88.65
76726;BME280;65651;53.154;17.916;2023-01-10T09:27:19;100880.89;;;4.69;88.70
76726;BME280;65651;53.154;17.916;2023-01-10T09:29:47;100885.48;;;4.70;88.58
76726;BME280;65651;53.154;17.916;2023-01-10T09:32:17;100888.66;;;4.70;88.72
76726;BME280;65651;53.154;17.916;2023-01-10T09:34:44;100895.53;;;4.69;88.55
76726;BME280;65651;53.154;17.916;2023-01-10T09:37:11;100892.54;;;4.68;88.55
76726;BME280;65651;53.154;17.916;2023-01-10T09:39:38;100897.58;;;4.73;88.56
76726;BME280;65651;53.154;17.916;2023-01-10T09:45:20;100898.38;;;4.79;88.50
76726;BME280;65651;53.154;17.916;2023-01-10T09:47:54;100897.67;;;4.87;88.62
76726;BME280;65651;53.154;17.916;2023-01-10T09:55:37;100897.30;;;4.98;88.32
76726;BME280;65651;53.154;17.916;2023-01-10T09:58:16;100898.19;;;4.95;88.33
76726;BME280;65651;53.154;17.916;2023-01-10T10:00:57;100897.45;;;5.01;88.42
76726;BME280;65651;53.154;17.916;2023-01-10T10:06:06;100894.42;;;5.17;88.28
76726;BME280;65651;53.154;17.916;2023-01-10T10:08:36;100895.21;;;5.16;88.43
76726;BME280;65651;53.154;17.916;2023-01-10T10:17:36;100897.64;;;5.16;88.28
76726;BME280;65651;53.154;17.916;2023-01-10T10:31:10;100900.01;;;5.29;88.22
76726;BME280;65651;53.154;17.916;2023-01-10T10:33:59;100901.57;;;5.29;88.26
76726;BME280;65651;53.154;17.916;2023-01-10T10:36:53;100910.24;;;5.27;88.31
76726;BME280;65651;53.154;17.916;2023-01-10T10:39:36;100914.99;;;5.28;88.15
76726;BME280;65651;53.154;17.916;2023-01-10T10:42:11;100920.26;;;5.29;88.16
76726;BME280;65651;53.154;17.916;2023-01-10T10:47:20;100916.09;;;5.30;88.27
76726;BME280;65651;53.154;17.916;2023-01-10T10:52:42;100913.25;;;5.28;88.20
76726;BME280;65651;53.154;17.916;2023-01-10T10:55:34;100920.88;;;5.28;88.34
76726;BME280;65651;53.154;17.916;2023-01-10T10:58:04;100921.23;;;5.25;88.22
76726;BME280;65651;53.154;17.916;2023-01-10T11:00:33;100917.45;;;5.31;87.95
76726;BME280;65651;53.154;17.916;2023-01-10T11:05:42;100922.16;;;5.37;88.16
76726;BME280;65651;53.154;17.916;2023-01-10T11:08:12;100926.08;;;5.41;88.01
76726;BME280;65651;53.154;17.916;2023-01-10T11:10:48;100937.38;;;5.44;87.96
76726;BME280;65651;53.154;17.916;2023-01-10T11:15:54;100956.02;;;5.42;88.36
76726;BME280;65651;53.154;17.916;2023-01-10T11:18:24;100958.36;;;5.34;88.11
76726;BME280;65651;53.154;17.916;2023-01-10T11:21:12;100960.05;;;5.33;88.00
76726;BME280;65651;53.154;17.916;2023-01-10T11:23:58;100960.00;;;5.42;88.12
76726;BME280;65651;53.154;17.916;2023-01-10T11:26:28;100963.63;;;5.46;88.23
76726;BME280;65651;53.154;17.916;2023-01-10T11:29:16;100966.52;;;5.45;88.11
76726;BME280;65651;53.154;17.916;2023-01-10T11:31:50;100975.77;;;5.50;88.04
76726;BME280;65651;53.154;17.916;2023-01-10T11:34:32;100979.65;;;5.54;87.93
76726;BME280;65651;53.154;17.916;2023-01-10T11:37:03;100984.43;;;5.51;88.03
76726;BME280;65651;53.154;17.916;2023-01-10T11:39:31;100987.51;;;5.51;88.13
76726;BME280;65651;53.154;17.916;2023-01-10T11:44:49;100982.47;;;5.49;88.13
76726;BME280;65651;53.154;17.916;2023-01-10T11:47:17;100985.85;;;5.44;87.99
76726;BME280;65651;53.154;17.916;2023-01-10T11:49:48;100990.20;;;5.39;87.97
76726;BME280;65651;53.154;17.916;2023-01-10T11:52:25;100995.48;;;5.41;88.19
76726;BME280;65651;53.154;17.916;2023-01-10T11:54:54;100999.80;;;5.45;88.20
76726;BME280;65651;53.154;17.916;2023-01-10T11:57:28;100999.89;;;5.44;88.08
76726;BME280;65651;53.154;17.916;2023-01-10T12:02:34;101007.89;;;5.41;88.00
76726;BME280;65651;53.154;17.916;2023-01-10T12:05:04;101005.53;;;5.42;88.28
76726;BME280;65651;53.154;17.916;2023-01-10T12:08:02;101006.55;;;5.40;88.21
76726;BME280;65651;53.154;17.916;2023-01-10T12:10:33;101019.77;;;5.37;88.22
76726;BME280;65651;53.154;17.916;2023-01-10T12:13:14;101026.20;;;5.39;88.16
76726;BME280;65651;53.154;17.916;2023-01-10T12:15:42;101024.84;;;5.41;88.32
76726;BME280;65651;53.154;17.916;2023-01-10T12:18:10;101026.64;;;5.38;88.02
76726;BME280;65651;53.154;17.916;2023-01-10T12:20:45;101029.27;;;5.38;88.13
76726;BME280;65651;53.154;17.916;2023-01-10T12:23:18;101031.59;;;5.44;88.31
76726;BME280;65651;53.154;17.916;2023-01-10T12:25:46;101030.30;;;5.50;88.33
76726;BME280;65651;53.154;17.916;2023-01-10T12:28:21;101021.20;;;5.50;88.08
76726;BME280;65651;53.154;17.916;2023-01-10T12:30:52;101013.42;;;5.52;88.31
76726;BME280;65651;53.154;17.916;2023-01-10T12:33:37;101021.29;;;5.54;88.25
76726;BME280;65651;53.154;17.916;2023-01-10T12:36:31;101033.09;;;5.56;88.22
76726;BME280;65651;53.154;17.916;2023-01-10T12:39:13;101040.71;;;5.56;88.23
76726;BME280;65651;53.154;17.916;2023-01-10T12:44:40;101038.56;;;5.62;88.20
76726;BME280;65651;53.154;17.916;2023-01-10T12:52:49;101045.26;;;5.60;88.35
76726;BME280;65651;53.154;17.916;2023-01-10T12:55:20;101046.64;;;5.63;88.24
76726;BME280;65651;53.154;17.916;2023-01-10T12:57:52;101046.81;;;5.69;88.35
76726;BME280;65651;53.154;17.916;2023-01-10T13:00:44;101046.20;;;5.70;88.24
76726;BME280;65651;53.154;17.916;2023-01-10T13:03:17;101048.27;;;5.71;88.11
76726;BME280;65651;53.154;17.916;2023-01-10T13:05:47;101050.92;;;5.69;88.26
76726;BME280;65651;53.154;17.916;2023-01-10T13:08:18;101058.60;;;5.66;88.28
76726;BME280;65651;53.154;17.916;2023-01-10T13:10:49;101059.02;;;5.68;88.14
76726;BME280;65651;53.154;17.916;2023-01-10T13:13:41;101061.20;;;5.69;88.34
76726;BME280;65651;53.154;17.916;2023-01-10T13:21:29;101061.55;;;5.82;88.04
76726;BME280;65651;53.154;17.916;2023-01-10T13:24:03;101060.58;;;5.86;87.91
76726;BME280;65651;53.154;17.916;2023-01-10T13:26:50;101067.84;;;5.92;88.16
76726;BME280;65651;53.154;17.916;2023-01-10T13:29:24;101069.13;;;5.89;88.01
76726;BME280;65651;53.154;17.916;2023-01-10T13:31:52;101072.42;;;5.85;87.96
76726;BME280;65651;53.154;17.916;2023-01-10T13:34:33;101068.05;;;5.84;87.76
76726;BME280;65651;53.154;17.916;2023-01-10T13:37:11;101067.11;;;5.82;87.96
76726;BME280;65651;53.154;17.916;2023-01-10T13:39:44;101073.45;;;5.78;87.89
76726;BME280;65651;53.154;17.916;2023-01-10T13:42:34;101078.86;;;5.77;87.92
76726;BME280;65651;53.154;17.916;2023-01-10T13:45:28;101087.75;;;5.77;87.77
76726;BME280;65651;53.154;17.916;2023-01-10T13:47:58;101095.45;;;5.77;87.89
76726;BME280;65651;53.154;17.916;2023-01-10T14:09:00;101137.73;;;5.70;87.91
76726;BME280;65651;53.154;17.916;2023-01-10T14:11:45;101140.23;;;5.70;88.19
76726;BME280;65651;53.154;17.916;2023-01-10T14:14:21;101151.20;;;5.66;88.13
76726;BME280;65651;53.154;17.916;2023-01-10T14:16:55;101153.33;;;5.63;88.17
76726;BME280;65651;53.154;17.916;2023-01-10T14:19:27;101158.02;;;5.62;88.08
76726;BME280;65651;53.154;17.916;2023-01-10T14:21:58;101159.41;;;5.57;88.07
76726;BME280;65651;53.154;17.916;2023-01-10T14:24:35;101166.29;;;5.58;88.14
76726;BME280;65651;53.154;17.916;2023-01-10T14:27:12;101165.09;;;5.58;88.21
76726;BME280;65651;53.154;17.916;2023-01-10T14:29:56;101169.30;;;5.58;88.36
76726;BME280;65651;53.154;17.916;2023-01-10T14:32:33;101171.77;;;5.59;88.11
76726;BME280;65651;53.154;17.916;2023-01-10T14:35:06;101171.73;;;5.60;88.33
76726;BME280;65651;53.154;17.916;2023-01-10T14:40:44;101170.00;;;5.61;88.09
76726;BME280;65651;53.154;17.916;2023-01-10T14:43:23;101170.41;;;5.61;88.21
76726;BME280;65651;53.154;17.916;2023-01-10T14:46:04;101169.68;;;5.61;88.09
76726;BME280;65651;53.154;17.916;2023-01-10T14:48:40;101168.91;;;5.62;88.37
76726;BME280;65651;53.154;17.916;2023-01-10T14:53:35;101171.76;;;5.62;88.20
76726;BME280;65651;53.154;17.916;2023-01-10T14:56:23;101172.75;;;5.58;88.27
76726;BME280;65651;53.154;17.916;2023-01-10T14:58:51;101171.72;;;5.49;88.06
76726;BME280;65651;53.154;17.916;2023-01-10T15:01:24;101180.25;;;5.41;88.20
76726;BME280;65651;53.154;17.916;2023-01-10T15:03:53;101182.61;;;5.32;88.39
76726;BME280;65651;53.154;17.916;2023-01-10T15:06:21;101187.85;;;5.25;88.23